Time;durP1;ratioP1;P1;durP2;ratioP2;P2;SDS_P1;SDS_P2;PMS_P1;PMS_P2;Temp;Humidity;BMP_temperature;BMP_pressure;BME280_temperature;BME280_humidity;BME280_pressure;Samples;Min_cycle;Max_cycle;Signal;HPM_P1;HPM_P2
2021/05/24 00:00:34;;;;;;;3.10;2.80;;;10.00;99.90;;;;;;5032682;28;20567;-52
2021/05/24 00:02:59;;;;;;;2.80;2.60;;;10.10;99.90;;;;;;5048245;28;20196;-51
2021/05/24 00:05:29;;;;;;;3.33;2.60;;;9.90;99.90;;;;;;5049786;28;20210;-51
2021/05/24 00:07:55;;;;;;;2.60;2.40;;;10.20;99.90;;;;;;5041631;28;20805;-52
2021/05/24 00:10:23;;;;;;;2.60;2.40;;;10.10;99.90;;;;;;5044006;28;20216;-52
2021/05/24 00:12:51;;;;;;;3.08;2.70;;;10.20;99.90;;;;;;5040335;28;20186;-52
2021/05/24 00:15:22;;;;;;;3.20;2.85;;;9.90;99.90;;;;;;5066275;28;20233;-51
2021/05/24 00:17:49;;;;;;;4.05;2.97;;;10.00;99.90;;;;;;5040888;28;20197;-51
2021/05/24 00:20:18;;;;;;;2.80;2.60;;;10.00;99.90;;;;;;5033962;28;20198;-51
2021/05/24 00:22:44;;;;;;;2.78;2.58;;;9.90;99.90;;;;;;5043331;28;20197;-51
2021/05/24 00:25:10;;;;;;;2.90;2.70;;;10.00;99.90;;;;;;5037330;28;20198;-50
2021/05/24 00:27:36;;;;;;;3.35;2.72;;;9.90;99.90;;;;;;5045460;28;20462;-51
2021/05/24 00:30:04;;;;;;;3.23;2.93;;;9.70;99.90;;;;;;5037909;28;20179;-51
2021/05/24 00:32:29;;;;;;;2.90;2.70;;;9.80;99.90;;;;;;5042587;28;20186;-51
2021/05/24 00:34:55;;;;;;;4.10;3.33;;;9.70;99.90;;;;;;5046902;28;20705;-51
2021/05/24 00:37:21;;;;;;;4.43;3.50;;;9.80;99.90;;;;;;5038986;28;20222;-51
2021/05/24 00:39:46;;;;;;;3.50;3.20;;;9.90;99.90;;;;;;5046079;28;20220;-51
2021/05/24 00:42:12;;;;;;;2.73;2.53;;;9.80;99.90;;;;;;5034556;28;20186;-51
2021/05/24 00:44:38;;;;;;;3.77;2.90;;;9.70;99.90;;;;;;5035754;28;20210;-51
2021/05/24 00:47:04;;;;;;;5.27;3.03;;;9.70;99.90;;;;;;5040054;28;20256;-51
2021/05/24 00:49:30;;;;;;;2.93;2.73;;;9.50;99.90;;;;;;5037310;28;20437;-51
2021/05/24 00:51:56;;;;;;;3.33;2.40;;;9.80;99.90;;;;;;5038316;28;20188;-51
2021/05/24 00:54:24;;;;;;;3.80;3.17;;;9.80;99.90;;;;;;5038300;28;20194;-50
2021/05/24 00:56:51;;;;;;;2.95;2.70;;;9.80;99.90;;;;;;5032002;28;20274;-51
2021/05/24 00:59:17;;;;;;;3.30;2.60;;;9.60;99.90;;;;;;5048878;28;20189;-51
2021/05/24 01:01:43;;;;;;;2.73;2.53;;;9.60;99.90;;;;;;5044603;28;20280;-52
2021/05/24 01:04:09;;;;;;;2.87;2.67;;;9.90;99.90;;;;;;5032908;28;20246;-52
2021/05/24 01:06:35;;;;;;;2.70;2.42;;;9.50;99.90;;;;;;5042373;28;20206;-52
2021/05/24 01:09:00;;;;;;;4.33;3.30;;;9.80;99.90;;;;;;5034900;28;20229;-52
2021/05/24 01:11:26;;;;;;;3.00;2.70;;;9.60;99.90;;;;;;5045863;28;20819;-52
2021/05/24 01:13:52;;;;;;;3.20;2.90;;;9.50;99.90;;;;;;5042662;28;20190;-52
2021/05/24 01:16:17;;;;;;;3.10;2.90;;;9.70;99.90;;;;;;5030418;28;20678;-51
2021/05/24 01:18:43;;;;;;;3.17;2.70;;;9.90;99.90;;;;;;5037322;28;20199;-52
2021/05/24 01:21:14;;;;;;;3.53;2.40;;;9.90;99.90;;;;;;5045372;28;20194;-52
2021/05/24 01:23:44;;;;;;;3.25;2.50;;;9.90;99.90;;;;;;5037382;28;20204;-52
2021/05/24 01:26:10;;;;;;;4.65;2.90;;;9.80;99.90;;;;;;5049754;28;20210;-51
2021/05/24 01:28:36;;;;;;;3.50;2.90;;;9.80;99.90;;;;;;5048744;28;20538;-52
2021/05/24 01:31:03;;;;;;;2.97;2.77;;;9.90;99.90;;;;;;5047816;28;20314;-51
2021/05/24 01:33:29;;;;;;;3.28;2.80;;;10.00;99.90;;;;;;5041408;28;20235;-52
2021/05/24 01:35:55;;;;;;;2.80;2.60;;;9.80;99.90;;;;;;5037560;28;20280;-51
2021/05/24 01:38:21;;;;;;;3.30;2.80;;;9.60;99.90;;;;;;5037801;28;20194;-51
2021/05/24 01:40:47;;;;;;;2.97;2.40;;;9.50;99.90;;;;;;5041206;28;20192;-51
2021/05/24 01:43:14;;;;;;;4.57;3.45;;;9.40;99.90;;;;;;5041637;28;20221;-51
2021/05/24 01:45:42;;;;;;;3.42;3.00;;;9.50;99.90;;;;;;5041907;28;20201;-51
2021/05/24 01:48:08;;;;;;;3.67;2.90;;;9.70;99.90;;;;;;5040575;28;20583;-51
2021/05/24 01:50:34;;;;;;;2.92;2.55;;;9.50;99.90;;;;;;5038802;28;20193;-51
2021/05/24 01:53:00;;;;;;;3.20;3.00;;;9.60;99.90;;;;;;5037336;28;20584;-51
2021/05/24 01:55:26;;;;;;;3.17;2.87;;;9.30;99.90;;;;;;5044878;28;20209;-50
2021/05/24 01:57:53;;;;;;;3.77;2.77;;;9.50;99.90;;;;;;5042351;28;20235;-51
2021/05/24 02:00:21;;;;;;;3.65;3.22;;;9.40;99.90;;;;;;5032305;28;20214;-51
2021/05/24 02:02:48;;;;;;;4.25;3.30;;;9.50;99.90;;;;;;5033173;28;20619;-51
2021/05/24 02:05:16;;;;;;;4.32;3.40;;;9.40;99.90;;;;;;5037037;28;20221;-51
2021/05/24 02:07:42;;;;;;;2.95;2.75;;;9.50;99.90;;;;;;5032784;28;20233;-51
2021/05/24 02:10:10;;;;;;;3.92;3.55;;;9.40;99.90;;;;;;5045325;28;20185;-51
2021/05/24 02:12:36;;;;;;;3.22;2.92;;;9.40;99.90;;;;;;5044979;28;20189;-51
2021/05/24 02:15:04;;;;;;;3.85;3.33;;;9.20;99.90;;;;;;5045315;28;20275;-50
2021/05/24 02:17:29;;;;;;;3.00;2.70;;;9.20;99.90;;;;;;5032970;28;20252;-51
2021/05/24 02:19:55;;;;;;;3.73;2.73;;;9.10;99.90;;;;;;5030032;28;20186;-50
2021/05/24 02:22:21;;;;;;;3.40;3.10;;;9.20;99.90;;;;;;5032639;28;20190;-51
2021/05/24 02:24:46;;;;;;;5.00;3.20;;;9.30;99.90;;;;;;5037673;28;20225;-51
2021/05/24 02:27:12;;;;;;;3.10;2.70;;;9.00;99.90;;;;;;5031134;28;20214;-50
2021/05/24 02:29:38;;;;;;;3.10;2.90;;;9.20;99.90;;;;;;5037111;28;20248;-51
2021/05/24 02:32:04;;;;;;;3.22;3.03;;;9.00;99.90;;;;;;5031028;28;20235;-51
2021/05/24 02:34:30;;;;;;;4.97;3.55;;;9.10;99.90;;;;;;5032052;28;20257;-50
2021/05/24 02:36:57;;;;;;;5.57;3.40;;;9.00;99.90;;;;;;5040591;28;20282;-50
2021/05/24 02:39:23;;;;;;;3.30;3.00;;;9.10;99.90;;;;;;5040865;28;20807;-51
2021/05/24 02:41:48;;;;;;;4.30;3.97;;;9.10;99.90;;;;;;5047879;28;20185;-51
2021/05/24 02:44:14;;;;;;;7.17;3.17;;;9.20;99.90;;;;;;5045544;28;20271;-52
2021/05/24 02:46:43;;;;;;;3.30;3.07;;;9.00;99.90;;;;;;5051635;28;20545;-51
2021/05/24 02:49:09;;;;;;;3.58;3.10;;;9.20;99.90;;;;;;5042252;28;20214;-51
2021/05/24 02:51:35;;;;;;;4.78;3.28;;;8.90;99.90;;;;;;5044072;28;20182;-51
2021/05/24 02:54:03;;;;;;;3.80;3.40;;;8.90;99.90;;;;;;5053277;28;20186;-51
2021/05/24 02:56:29;;;;;;;3.50;3.20;;;9.10;99.90;;;;;;5035480;28;20190;-51
2021/05/24 02:58:55;;;;;;;3.20;2.90;;;9.30;99.90;;;;;;5038144;28;20182;-51
2021/05/24 03:01:21;;;;;;;4.87;3.30;;;9.00;99.90;;;;;;5041206;28;20190;-51
2021/05/24 03:03:53;;;;;;;4.95;2.88;;;9.20;99.90;;;;;;5035408;28;20813;-52
2021/05/24 03:06:19;;;;;;;3.55;3.25;;;9.00;99.90;;;;;;5039930;28;20206;-51
2021/05/24 03:08:44;;;;;;;3.47;3.10;;;9.00;99.90;;;;;;5045821;28;20186;-51
2021/05/24 03:11:10;;;;;;;2.53;2.43;;;9.10;99.90;;;;;;5043647;28;20182;-52
2021/05/24 03:13:36;;;;;;;2.67;2.47;;;9.10;99.90;;;;;;5043324;28;20186;-50
2021/05/24 03:16:02;;;;;;;3.80;2.73;;;9.00;99.90;;;;;;5043158;28;20245;-51
2021/05/24 03:18:28;;;;;;;3.92;2.95;;;9.00;99.90;;;;;;5047972;28;21000;-51
2021/05/24 03:20:53;;;;;;;2.57;2.37;;;9.20;99.90;;;;;;5051288;28;20190;-52
2021/05/24 03:23:19;;;;;;;4.87;2.77;;;9.00;99.90;;;;;;5051505;28;20231;-51
2021/05/24 03:25:45;;;;;;;3.23;3.03;;;9.30;99.90;;;;;;5040100;28;20203;-51
2021/05/24 03:28:10;;;;;;;2.90;2.60;;;9.10;99.90;;;;;;5040918;28;20202;-52
2021/05/24 03:30:36;;;;;;;5.67;2.73;;;9.10;99.90;;;;;;5044059;28;20196;-52
2021/05/24 03:33:02;;;;;;;4.83;2.83;;;9.00;99.90;;;;;;5048133;28;20182;-51
2021/05/24 03:35:28;;;;;;;2.80;2.60;;;9.30;99.90;;;;;;5048522;28;20593;-51
2021/05/24 03:37:53;;;;;;;3.42;2.85;;;9.20;99.90;;;;;;5042815;28;20194;-51
2021/05/24 03:40:19;;;;;;;2.47;2.30;;;9.00;99.90;;;;;;5042071;28;20206;-51
2021/05/24 03:42:46;;;;;;;3.60;3.20;;;9.10;99.90;;;;;;5033009;28;20289;-51
2021/05/24 03:45:16;;;;;;;3.92;2.60;;;8.90;99.90;;;;;;5049810;28;20468;-51
2021/05/24 03:47:45;;;;;;;4.32;2.70;;;9.10;99.90;;;;;;5036268;28;20202;-51
2021/05/24 03:50:13;;;;;;;2.88;2.67;;;9.10;99.90;;;;;;5049154;28;20239;-52
2021/05/24 03:52:38;;;;;;;2.80;2.50;;;9.00;99.90;;;;;;5044148;28;20695;-52
2021/05/24 03:55:05;;;;;;;2.90;2.60;;;8.90;99.90;;;;;;5040072;28;20205;-51
2021/05/24 03:57:31;;;;;;;2.53;2.30;;;9.20;99.90;;;;;;5036939;28;22632;-51
2021/05/24 03:59:57;;;;;;;2.60;2.40;;;9.20;99.90;;;;;;5040407;28;20182;-51
2021/05/24 04:02:23;;;;;;;2.37;2.17;;;9.10;99.90;;;;;;5044364;28;20186;-51
2021/05/24 04:04:49;;;;;;;2.47;2.30;;;9.20;99.90;;;;;;5043386;28;20456;-51
2021/05/24 04:07:21;;;;;;;2.28;2.08;;;9.10;99.90;;;;;;5043685;28;20300;-51
2021/05/24 04:09:47;;;;;;;2.35;2.15;;;9.20;99.90;;;;;;5063127;28;20600;-51
2021/05/24 04:12:13;;;;;;;2.97;2.40;;;9.20;99.90;;;;;;5045057;28;20182;-52
2021/05/24 04:14:40;;;;;;;3.57;2.43;;;9.30;99.90;;;;;;5040951;28;20455;-52
2021/05/24 04:17:06;;;;;;;2.78;2.50;;;9.30;99.90;;;;;;5059494;28;21261;-52
2021/05/24 04:19:32;;;;;;;2.93;2.43;;;9.10;99.90;;;;;;5043939;28;20267;-52
2021/05/24 04:21:58;;;;;;;3.07;2.20;;;9.30;99.90;;;;;;5045587;28;20440;-51
2021/05/24 04:24:23;;;;;;;2.67;2.20;;;9.50;99.90;;;;;;5046450;28;20464;-51
2021/05/24 04:26:49;;;;;;;2.00;1.83;;;9.20;99.90;;;;;;5046762;28;20209;-51
2021/05/24 04:29:14;;;;;;;2.47;2.27;;;9.30;99.90;;;;;;5046663;28;20671;-50
2021/05/24 04:31:40;;;;;;;2.30;2.10;;;9.40;99.90;;;;;;5041479;28;20225;-50
2021/05/24 04:34:06;;;;;;;2.53;2.33;;;9.20;99.90;;;;;;5041180;28;20193;-51
2021/05/24 04:36:31;;;;;;;2.63;2.43;;;9.30;99.90;;;;;;5044724;28;20658;-50
2021/05/24 04:38:57;;;;;;;3.10;2.53;;;9.10;99.90;;;;;;5046652;28;20327;-52
2021/05/24 04:41:23;;;;;;;2.60;2.40;;;9.40;99.90;;;;;;5042565;28;20410;-51
2021/05/24 04:43:51;;;;;;;2.87;2.40;;;9.60;99.90;;;;;;5048265;28;20506;-50
2021/05/24 04:46:17;;;;;;;2.97;2.67;;;9.60;99.90;;;;;;5043228;28;20185;-50
2021/05/24 04:48:42;;;;;;;4.10;2.40;;;9.50;99.90;;;;;;5042165;28;20178;-50
2021/05/24 04:51:08;;;;;;;2.60;2.40;;;9.20;99.90;;;;;;5042852;28;20300;-51
2021/05/24 04:53:33;;;;;;;2.70;2.50;;;9.30;99.90;;;;;;5041282;28;20578;-53
2021/05/24 04:55:59;;;;;;;3.00;2.10;;;9.50;99.90;;;;;;5044616;28;20202;-51
2021/05/24 04:58:25;;;;;;;2.10;2.00;;;9.70;99.90;;;;;;5042680;28;20182;-52
2021/05/24 05:00:50;;;;;;;2.53;2.30;;;9.70;99.90;;;;;;5043896;28;20243;-52
2021/05/24 05:03:16;;;;;;;4.83;2.30;;;9.70;99.90;;;;;;5039702;28;20221;-53
2021/05/24 05:05:42;;;;;;;2.33;2.13;;;10.10;99.90;;;;;;5042203;28;20259;-53
2021/05/24 05:08:08;;;;;;;2.27;2.07;;;9.80;99.90;;;;;;5043933;28;20210;-49
2021/05/24 05:10:34;;;;;;;2.10;2.00;;;10.00;99.90;;;;;;5044687;28;20217;-52
2021/05/24 05:13:00;;;;;;;2.23;2.03;;;10.10;99.90;;;;;;5043194;28;20201;-51
2021/05/24 05:15:26;;;;;;;4.37;2.70;;;10.10;99.90;;;;;;5045129;28;20255;-52
2021/05/24 05:17:52;;;;;;;2.53;2.33;;;10.30;99.90;;;;;;5040877;28;20939;-52
2021/05/24 05:20:17;;;;;;;2.13;1.83;;;10.00;99.90;;;;;;5042100;28;20436;-51
2021/05/24 05:22:43;;;;;;;2.30;2.10;;;10.30;99.90;;;;;;5039737;28;20555;-52
2021/05/24 05:25:09;;;;;;;2.23;2.03;;;10.30;99.90;;;;;;5043552;28;20201;-51
2021/05/24 05:27:35;;;;;;;2.05;1.95;;;10.50;99.90;;;;;;5043655;28;20674;-52
2021/05/24 05:30:00;;;;;;;3.20;2.13;;;10.60;99.90;;;;;;5043349;28;20198;-54
2021/05/24 05:32:26;;;;;;;3.30;2.30;;;11.00;99.90;;;;;;5043172;28;20413;-53
2021/05/24 05:34:52;;;;;;;2.50;2.23;;;10.90;99.90;;;;;;5044777;28;20212;-52
2021/05/24 05:37:20;;;;;;;2.63;2.20;;;10.70;99.90;;;;;;5044067;28;21136;-51
2021/05/24 05:39:49;;;;;;;2.30;2.10;;;10.80;99.90;;;;;;5042843;28;20566;-51
2021/05/24 05:42:15;;;;;;;2.33;2.13;;;11.10;99.90;;;;;;5042865;28;20195;-51
2021/05/24 05:44:41;;;;;;;1.90;1.80;;;11.10;99.90;;;;;;5042569;28;20325;-53
2021/05/24 05:47:07;;;;;;;3.10;2.00;;;11.00;99.90;;;;;;5041994;28;20309;-51
2021/05/24 05:49:32;;;;;;;2.75;2.13;;;11.00;99.90;;;;;;5046358;28;20659;-53
2021/05/24 05:51:58;;;;;;;2.50;2.30;;;11.10;99.90;;;;;;5042947;28;20256;-51
2021/05/24 05:54:24;;;;;;;2.83;2.10;;;10.80;99.90;;;;;;5043375;28;20240;-53
2021/05/24 05:56:50;;;;;;;2.17;1.97;;;10.90;99.90;;;;;;5043500;28;20194;-52
2021/05/24 05:59:19;;;;;;;3.15;2.30;;;11.20;99.90;;;;;;5042603;28;20721;-53
2021/05/24 06:01:45;;;;;;;2.55;2.30;;;11.20;99.90;;;;;;5043580;28;20186;-52
2021/05/24 06:04:10;;;;;;;2.60;2.07;;;11.10;99.90;;;;;;5045068;28;20206;-53
2021/05/24 06:06:36;;;;;;;2.53;2.33;;;11.10;99.90;;;;;;5043246;28;20733;-51
2021/05/24 06:09:02;;;;;;;2.70;2.50;;;11.10;99.90;;;;;;5044379;28;20442;-53
2021/05/24 06:11:28;;;;;;;3.47;2.28;;;11.30;99.90;;;;;;5040692;28;20206;-52
2021/05/24 06:13:54;;;;;;;2.40;2.20;;;11.50;99.90;;;;;;5041925;28;20230;-52
2021/05/24 06:16:20;;;;;;;2.90;1.90;;;11.60;99.90;;;;;;5043981;28;20225;-51
2021/05/24 06:18:47;;;;;;;2.20;1.93;;;11.90;99.90;;;;;;5059453;28;20210;-51
2021/05/24 06:21:15;;;;;;;2.45;1.95;;;12.00;99.90;;;;;;5041614;28;20461;-52
2021/05/24 06:23:45;;;;;;;2.67;2.42;;;12.30;99.90;;;;;;5043034;28;20246;-52
2021/05/24 06:26:16;;;;;;;2.20;2.00;;;12.30;99.90;;;;;;5042230;28;20211;-52
2021/05/24 06:28:42;;;;;;;2.00;1.90;;;12.60;99.90;;;;;;5040173;28;20192;-53
2021/05/24 06:31:07;;;;;;;4.27;2.13;;;12.50;99.10;;;;;;5044620;28;20584;-52
2021/05/24 06:33:33;;;;;;;3.67;2.00;;;12.70;99.20;;;;;;5042290;28;20286;-53
2021/05/24 06:35:59;;;;;;;1.90;1.80;;;12.70;99.00;;;;;;5045753;28;20203;-52
2021/05/24 06:38:32;;;;;;;6.80;2.53;;;12.60;98.50;;;;;;5043285;28;20453;-52
2021/05/24 06:41:01;;;;;;;2.58;1.42;;;12.80;98.40;;;;;;5040210;28;20446;-53
2021/05/24 06:43:27;;;;;;;1.80;1.70;;;13.10;98.20;;;;;;5046241;28;20191;-51
2021/05/24 06:45:57;;;;;;;1.88;1.52;;;13.10;97.30;;;;;;5023864;28;20577;-52
2021/05/24 06:48:22;;;;;;;2.35;2.15;;;13.20;96.90;;;;;;5041721;28;20213;-52
2021/05/24 06:50:48;;;;;;;2.07;1.87;;;13.50;96.40;;;;;;5034561;28;20272;-51
2021/05/24 06:53:17;;;;;;;1.70;1.60;;;14.10;95.90;;;;;;5043896;28;20276;-52
2021/05/24 06:55:43;;;;;;;2.00;1.63;;;14.10;95.50;;;;;;5034419;28;20208;-52
2021/05/24 06:58:09;;;;;;;2.10;1.67;;;14.10;95.30;;;;;;5037634;28;20268;-53
2021/05/24 07:00:34;;;;;;;2.20;1.60;;;14.40;95.30;;;;;;5039033;28;20228;-52
2021/05/24 07:03:01;;;;;;;1.80;1.70;;;14.50;94.60;;;;;;5047054;28;20307;-52
2021/05/24 07:05:27;;;;;;;1.83;1.73;;;15.00;94.00;;;;;;5038374;28;20219;-51
2021/05/24 07:07:52;;;;;;;1.80;1.40;;;14.90;93.40;;;;;;5034908;28;20209;-52
2021/05/24 07:10:18;;;;;;;2.80;1.30;;;15.30;93.10;;;;;;5040893;28;21019;-52
2021/05/24 07:12:44;;;;;;;1.60;1.50;;;15.50;92.40;;;;;;5037777;28;20193;-52
2021/05/24 07:15:10;;;;;;;2.20;1.70;;;16.10;91.40;;;;;;5039000;28;20451;-53
2021/05/24 07:17:35;;;;;;;2.63;1.88;;;16.10;90.40;;;;;;5061359;28;20228;-52
2021/05/24 07:20:03;;;;;;;1.80;1.70;;;16.40;90.60;;;;;;5036224;28;20670;-53
2021/05/24 07:22:29;;;;;;;2.05;1.80;;;17.40;88.10;;;;;;5036993;28;20182;-52
2021/05/24 07:24:56;;;;;;;2.45;2.25;;;17.30;86.70;;;;;;5032826;28;20231;-52
2021/05/24 07:27:22;;;;;;;4.40;1.65;;;16.90;86.60;;;;;;5046593;28;20213;-53
2021/05/24 07:29:48;;;;;;;5.33;2.37;;;16.70;86.30;;;;;;5041284;28;20184;-52
2021/05/24 07:32:13;;;;;;;3.73;3.43;;;16.80;86.90;;;;;;5050991;28;20451;-52
2021/05/24 07:34:40;;;;;;;1.67;1.43;;;16.40;87.50;;;;;;5046438;28;20209;-52
2021/05/24 07:37:07;;;;;;;1.85;1.75;;;17.20;86.50;;;;;;5040651;28;20231;-52
2021/05/24 07:39:33;;;;;;;2.13;1.90;;;17.70;85.50;;;;;;5046239;28;20615;-53
2021/05/24 07:42:04;;;;;;;4.45;2.35;;;17.10;83.90;;;;;;5044367;28;20632;-52
2021/05/24 07:44:32;;;;;;;2.35;1.95;;;17.00;85.40;;;;;;5043771;28;20209;-52
2021/05/24 07:46:58;;;;;;;2.67;1.75;;;16.50;85.90;;;;;;5043506;28;20702;-53
2021/05/24 07:49:24;;;;;;;1.90;1.80;;;17.30;86.00;;;;;;5040704;28;20189;-53
2021/05/24 07:51:50;;;;;;;2.00;1.83;;;17.20;84.20;;;;;;5046724;28;20577;-52
2021/05/24 07:54:17;;;;;;;1.95;1.75;;;17.10;83.70;;;;;;5048265;28;20213;-51
2021/05/24 07:56:43;;;;;;;2.10;2.00;;;17.30;84.60;;;;;;5046706;28;20190;-53
2021/05/24 07:59:09;;;;;;;2.00;1.90;;;16.90;86.40;;;;;;5044963;28;20186;-53
2021/05/24 08:01:34;;;;;;;2.20;2.03;;;17.00;85.60;;;;;;5043577;28;20186;-52
2021/05/24 08:04:00;;;;;;;2.60;1.90;;;17.10;84.50;;;;;;5047600;28;20677;-53
2021/05/24 08:06:25;;;;;;;3.13;1.93;;;17.10;85.30;;;;;;5041134;28;20314;-53
2021/05/24 08:08:51;;;;;;;1.57;1.30;;;16.90;85.40;;;;;;5042507;28;20192;-52
2021/05/24 08:11:20;;;;;;;1.90;1.60;;;17.00;83.20;;;;;;5046525;28;20197;-53
2021/05/24 08:13:45;;;;;;;1.42;1.33;;;17.00;81.20;;;;;;5049582;28;20181;-53
2021/05/24 08:16:13;;;;;;;2.37;1.23;;;17.40;81.00;;;;;;5048719;28;20208;-55
2021/05/24 08:18:40;;;;;;;2.90;1.30;;;17.30;80.30;;;;;;5045254;28;20919;-54
2021/05/24 08:21:07;;;;;;;1.80;1.25;;;17.50;79.90;;;;;;5045045;28;20193;-54
2021/05/24 08:23:33;;;;;;;3.72;1.70;;;17.80;79.60;;;;;;5045704;28;20186;-53
2021/05/24 08:26:00;;;;;;;4.17;2.10;;;18.00;78.80;;;;;;5048045;28;20215;-53
2021/05/24 08:28:26;;;;;;;2.30;1.88;;;18.20;77.80;;;;;;5042772;28;20917;-51
2021/05/24 08:30:53;;;;;;;1.50;1.30;;;18.50;77.60;;;;;;5041876;28;20217;-51
2021/05/24 08:33:19;;;;;;;1.77;1.67;;;18.80;75.40;;;;;;5043691;28;20197;-51
2021/05/24 08:35:44;;;;;;;4.27;1.57;;;18.60;76.20;;;;;;5043198;28;20274;-50
2021/05/24 08:38:10;;;;;;;1.60;1.30;;;18.80;75.10;;;;;;5042954;28;20288;-53
2021/05/24 08:40:36;;;;;;;1.93;1.30;;;19.30;74.10;;;;;;5043607;28;20193;-53
2021/05/24 08:43:01;;;;;;;2.23;1.60;;;19.30;72.00;;;;;;5059685;28;20573;-53
2021/05/24 08:45:30;;;;;;;1.67;1.20;;;19.60;71.40;;;;;;5038483;28;20213;-53
2021/05/24 08:47:56;;;;;;;2.50;1.70;;;19.50;71.10;;;;;;5048628;28;20839;-53
2021/05/24 08:50:22;;;;;;;1.80;1.10;;;19.40;72.60;;;;;;5043586;28;20193;-51
2021/05/24 08:52:48;;;;;;;1.53;1.43;;;20.40;71.90;;;;;;5044794;28;20181;-52
2021/05/24 08:55:16;;;;;;;1.23;1.13;;;21.00;67.40;;;;;;5044834;28;20209;-52
2021/05/24 08:57:43;;;;;;;1.60;1.48;;;21.40;66.50;;;;;;5045432;28;20436;-52
2021/05/24 09:00:12;;;;;;;2.33;1.23;;;22.20;63.40;;;;;;5043830;28;20221;-53
2021/05/24 09:02:49;;;;;;;2.00;1.00;;;23.20;60.20;;;;;;5043011;28;20544;-53
2021/05/24 09:05:15;;;;;;;1.40;0.93;;;23.60;58.10;;;;;;5042649;28;20605;-54
2021/05/24 09:07:57;;;;;;;1.23;1.10;;;24.10;56.10;;;;;;5045855;28;20464;-54
2021/05/24 09:10:28;;;;;;;1.10;0.90;;;23.50;57.00;;;;;;5043997;28;20560;-52
2021/05/24 09:12:55;;;;;;;1.30;1.20;;;23.80;56.20;;;;;;5044526;28;20436;-51
2021/05/24 09:15:23;;;;;;;2.00;0.90;;;23.90;55.00;;;;;;5044255;28;20455;-54
2021/05/24 09:17:55;;;;;;;1.30;1.20;;;24.00;54.80;;;;;;5043778;28;20463;-52
2021/05/24 09:20:21;;;;;;;1.23;1.10;;;23.90;54.50;;;;;;5042678;28;20464;-50
2021/05/24 09:23:10;;;;;;;1.20;0.90;;;24.00;55.40;;;;;;5043217;28;20877;-52
2021/05/24 09:26:07;;;;;;;2.70;1.20;;;23.40;54.90;;;;;;5039991;28;20917;-54
2021/05/24 09:28:36;;;;;;;1.73;0.97;;;23.50;55.80;;;;;;5040210;28;20476;-52
2021/05/24 09:31:13;;;;;;;1.23;1.00;;;23.30;56.20;;;;;;5042065;28;20913;-53
2021/05/24 09:33:49;;;;;;;2.40;1.10;;;23.50;55.50;;;;;;5044347;28;20435;-52
2021/05/24 09:36:16;;;;;;;2.70;1.00;;;23.80;54.70;;;;;;5042917;28;20556;-50
2021/05/24 09:38:45;;;;;;;1.33;1.23;;;23.60;55.10;;;;;;5040272;28;20447;-50
2021/05/24 09:41:12;;;;;;;3.40;2.70;;;23.00;56.50;;;;;;5042260;28;20466;-51
2021/05/24 09:43:40;;;;;;;3.00;1.00;;;23.20;56.60;;;;;;5043548;28;20454;-50
2021/05/24 09:46:15;;;;;;;1.00;0.90;;;23.40;56.60;;;;;;5041102;28;20547;-51
2021/05/24 09:48:43;;;;;;;2.10;1.20;;;23.20;56.50;;;;;;5041979;28;20451;-51
2021/05/24 09:51:12;;;;;;;1.47;1.33;;;22.70;57.80;;;;;;5042348;28;20440;-51
2021/05/24 09:53:38;;;;;;;1.60;1.17;;;22.90;57.20;;;;;;5043672;28;20443;-50
2021/05/24 09:56:15;;;;;;;1.10;1.00;;;22.90;56.90;;;;;;5043004;28;20448;-51
2021/05/24 09:58:41;;;;;;;1.00;0.90;;;23.10;57.20;;;;;;5043900;28;20700;-50
2021/05/24 10:01:16;;;;;;;1.23;1.03;;;23.30;57.10;;;;;;5040077;28;20424;-49
2021/05/24 10:03:43;;;;;;;1.37;1.10;;;23.20;56.40;;;;;;5040874;28;21022;-50
2021/05/24 10:06:09;;;;;;;1.53;1.00;;;23.40;57.10;;;;;;5055912;28;21426;-49
2021/05/24 10:08:34;;;;;;;1.13;0.97;;;23.50;57.10;;;;;;5044446;28;20487;-50
2021/05/24 10:11:02;;;;;;;1.00;0.90;;;23.80;55.50;;;;;;5038910;28;20439;-52
2021/05/24 10:13:28;;;;;;;1.30;0.90;;;23.60;54.90;;;;;;5042249;28;20178;-52
2021/05/24 10:16:00;;;;;;;1.20;1.00;;;23.40;54.20;;;;;;5041486;28;20530;-50
2021/05/24 10:18:29;;;;;;;2.63;1.10;;;23.20;55.20;;;;;;5055703;28;20471;-52
2021/05/24 10:20:56;;;;;;;1.20;1.10;;;23.00;55.80;;;;;;5043559;28;20440;-52
2021/05/24 10:23:22;;;;;;;1.30;1.07;;;22.80;56.80;;;;;;5040043;28;20454;-54
2021/05/24 10:25:51;;;;;;;1.43;1.00;;;22.50;57.00;;;;;;5042778;28;20834;-54
2021/05/24 10:28:21;;;;;;;2.17;1.05;;;22.60;57.10;;;;;;5043526;28;20474;-53
2021/05/24 10:30:47;;;;;;;2.80;1.00;;;22.60;56.10;;;;;;5038488;28;20617;-54
2021/05/24 10:33:13;;;;;;;0.93;0.83;;;22.70;56.90;;;;;;5042132;28;20524;-54
2021/05/24 10:35:41;;;;;;;1.07;0.80;;;22.70;55.80;;;;;;5044289;28;20447;-54
2021/05/24 10:38:33;;;;;;;1.27;0.98;;;22.70;56.40;;;;;;5042740;28;20439;-53
2021/05/24 10:41:09;;;;;;;1.40;1.30;;;22.50;56.10;;;;;;5039099;28;20178;-54
2021/05/24 10:43:39;;;;;;;1.00;0.80;;;22.50;55.50;;;;;;5038684;28;20189;-53
2021/05/24 10:46:24;;;;;;;1.02;0.80;;;22.40;54.20;;;;;;5034208;28;20228;-53
2021/05/24 10:49:14;;;;;;;1.67;1.17;;;22.30;54.70;;;;;;5042707;28;20697;-55
2021/05/24 10:51:53;;;;;;;2.38;1.40;;;22.20;56.00;;;;;;5042299;28;20436;-53
2021/05/24 10:54:21;;;;;;;1.15;1.00;;;22.00;54.80;;;;;;5039287;28;20201;-54
2021/05/24 10:56:59;;;;;;;2.25;2.05;;;21.90;55.80;;;;;;5038521;28;20682;-53
2021/05/24 10:59:40;;;;;;;1.23;1.00;;;21.80;55.90;;;;;;5041367;28;20630;-52
2021/05/24 11:02:31;;;;;;;0.90;0.80;;;21.90;55.80;;;;;;5042777;28;20193;-53
2021/05/24 11:05:04;;;;;;;1.40;0.88;;;22.00;53.50;;;;;;5040764;28;20213;-52
2021/05/24 11:07:34;;;;;;;2.00;1.30;;;21.70;53.20;;;;;;5041363;28;20662;-52
2021/05/24 11:10:21;;;;;;;1.67;1.00;;;21.80;53.40;;;;;;5041895;28;20679;-54
2021/05/24 11:12:55;;;;;;;1.08;0.98;;;21.80;54.70;;;;;;5035484;28;20259;-54
2021/05/24 11:15:31;;;;;;;3.30;1.38;;;22.00;54.10;;;;;;5048496;28;20723;-54
2021/05/24 11:18:03;;;;;;;1.80;1.00;;;21.90;54.00;;;;;;5044059;28;20690;-53
2021/05/24 11:20:37;;;;;;;1.10;1.00;;;21.90;51.90;;;;;;5043502;28;20190;-53
2021/05/24 11:23:08;;;;;;;1.05;0.90;;;21.90;49.90;;;;;;5042703;28;20599;-54
2021/05/24 11:25:56;;;;;;;2.95;0.90;;;22.00;49.20;;;;;;5046471;28;20324;-53
2021/05/24 11:28:35;;;;;;;1.00;0.90;;;22.00;48.10;;;;;;5043015;28;20708;-53
2021/05/24 11:31:17;;;;;;;0.80;0.70;;;22.40;47.50;;;;;;5042640;28;20522;-52
2021/05/24 11:33:49;;;;;;;1.73;1.43;;;22.80;47.80;;;;;;5044745;28;20185;-58
2021/05/24 11:36:34;;;;;;;1.13;1.00;;;22.80;48.20;;;;;;5043202;28;20506;-57
2021/05/24 11:39:42;;;;;;;3.07;2.20;;;22.90;48.30;;;;;;5048254;28;20462;-56
2021/05/24 11:42:18;;;;;;;1.53;1.27;;;23.50;46.10;;;;;;5041618;28;20447;-56
2021/05/24 11:44:46;;;;;;;1.30;0.90;;;23.40;46.70;;;;;;5044697;28;21090;-56
2021/05/24 11:47:19;;;;;;;0.90;0.80;;;23.90;44.60;;;;;;5044056;28;20464;-56
2021/05/24 11:49:46;;;;;;;1.10;1.00;;;23.90;43.00;;;;;;5043005;28;20439;-54
2021/05/24 11:52:17;;;;;;;1.60;1.17;;;23.80;43.00;;;;;;5044473;28;20470;-54
2021/05/24 11:54:47;;;;;;;0.90;0.77;;;23.70;43.20;;;;;;5044488;28;20483;-54
2021/05/24 11:57:14;;;;;;;1.00;0.90;;;23.80;46.10;;;;;;5049216;28;20798;-56
2021/05/24 11:59:39;;;;;;;1.13;0.70;;;23.60;47.40;;;;;;5042861;28;20964;-56
2021/05/24 12:02:07;;;;;;;1.03;0.97;;;23.50;46.30;;;;;;5045054;28;20443;-52
2021/05/24 12:04:45;;;;;;;1.20;1.10;;;23.60;50.70;;;;;;5044555;28;20209;-53
2021/05/24 12:07:12;;;;;;;1.70;1.30;;;23.50;54.00;;;;;;5043844;28;20538;-53
2021/05/24 12:09:37;;;;;;;2.00;1.57;;;23.50;54.60;;;;;;5061847;28;20436;-53
2021/05/24 12:12:12;;;;;;;1.63;1.23;;;23.40;54.80;;;;;;5047380;28;20480;-53
2021/05/24 12:14:44;;;;;;;1.50;0.80;;;23.50;53.70;;;;;;5046868;28;20209;-53
2021/05/24 12:17:15;;;;;;;0.90;0.80;;;23.50;50.40;;;;;;5043186;28;20535;-53
2021/05/24 12:19:43;;;;;;;1.10;1.00;;;23.30;50.70;;;;;;5043391;28;20435;-55
2021/05/24 12:22:12;;;;;;;1.40;1.30;;;23.20;51.20;;;;;;5042423;28;20435;-55
2021/05/24 12:24:43;;;;;;;1.50;1.40;;;23.00;51.30;;;;;;5044415;28;20463;-54
2021/05/24 12:27:10;;;;;;;2.70;2.50;;;22.90;51.10;;;;;;5042023;28;20551;-56
2021/05/24 12:29:51;;;;;;;1.80;1.70;;;22.80;50.60;;;;;;5044932;28;20275;-54
2021/05/24 12:32:33;;;;;;;2.50;2.30;;;22.50;51.10;;;;;;5045484;28;20508;-57
2021/05/24 12:35:03;;;;;;;2.55;1.90;;;22.50;52.30;;;;;;5041944;28;20201;-57
2021/05/24 12:37:30;;;;;;;1.40;1.30;;;22.50;52.60;;;;;;5042456;28;20181;-54
2021/05/24 12:39:57;;;;;;;1.40;1.30;;;22.30;53.80;;;;;;5042739;28;20543;-53
2021/05/24 12:42:23;;;;;;;1.60;1.50;;;22.30;55.10;;;;;;5041026;28;20444;-55
2021/05/24 12:44:49;;;;;;;0.90;0.90;;;22.40;55.40;;;;;;5041060;28;20220;-56
2021/05/24 12:47:18;;;;;;;1.20;1.10;;;22.40;55.90;;;;;;5042146;28;20216;-54
2021/05/24 12:49:46;;;;;;;1.40;1.30;;;22.70;56.30;;;;;;5058988;28;20655;-54
2021/05/24 12:52:12;;;;;;;1.40;1.10;;;22.80;53.90;;;;;;5042276;28;20804;-54
2021/05/24 12:54:48;;;;;;;1.23;1.08;;;22.60;54.00;;;;;;5039255;28;20209;-54